Time;durP1;ratioP1;P1;durP2;ratioP2;P2;SDS_P1;SDS_P2;PMS_P1;PMS_P2;Temp;Humidity;BMP_temperature;BMP_pressure;BME280_temperature;BME280_humidity;BME280_pressure;Samples;Min_cycle;Max_cycle;Signal;HPM_P1;HPM_P2
2021/01/25 00:00:42;;;;;;;24.67;17.27;;;256.60;1894.40;;;;;;4839743;29;20098;-76
2021/01/25 00:03:07;;;;;;;22.35;16.15;;;256.50;1920.00;;;;;;4846218;29;20029;-78
2021/01/25 00:05:36;;;;;;;35.08;22.70;;;256.30;1945.60;;;;;;4865945;29;20132;-77
2021/01/25 00:08:02;;;;;;;36.42;22.90;;;256.20;1996.80;;;;;;4864882;29;20097;-78
2021/01/25 00:10:27;;;;;;;25.50;18.02;;;256.10;2048.00;;;;;;4869492;29;20060;-80
2021/01/25 00:12:54;;;;;;;23.85;17.60;;;256.00;2073.60;;;;;;4840042;29;20050;-77
2021/01/25 00:15:42;;;;;;;24.98;17.98;;;256.00;2073.60;;;;;;4861593;29;20030;-80
2021/01/25 00:18:59;;;;;;;28.92;20.08;;;256.00;2048.00;;;;;;4878783;29;20070;-78
2021/01/25 00:21:25;;;;;;;23.70;16.50;;;231.30;2073.60;;;;;;4807463;29;20112;-77
2021/01/25 00:23:51;;;;;;;22.17;15.18;;;231.20;2073.60;;;;;;4807622;29;20468;-78
2021/01/25 00:26:16;;;;;;;22.10;14.40;;;230.90;2099.20;;;;;;4810746;29;20027;-78
2021/01/25 00:28:42;;;;;;;20.15;14.85;;;230.60;2150.40;;;;;;4797191;29;20034;-77
2021/01/25 00:31:08;;;;;;;14.93;11.77;;;230.50;2150.40;;;;;;4811625;29;20086;-78
2021/01/25 00:33:35;;;;;;;15.70;10.48;;;205.60;2176.00;;;;;;4795136;29;20507;-77
2021/01/25 00:36:03;;;;;;;11.13;9.13;;;205.20;2176.00;;;;;;4789653;29;20051;-79
2021/01/25 00:38:32;;;;;;;11.30;8.75;;;204.90;2201.60;;;;;;4778852;30;20040;-79
2021/01/25 00:41:00;;;;;;;13.18;8.77;;;180.00;2227.20;;;;;;4773444;30;20036;-79
2021/01/25 00:43:27;;;;;;;10.95;7.50;;;179.70;2252.80;;;;;;4781353;30;20039;-79
2021/01/25 00:46:19;;;;;;;8.93;6.80;;;179.40;2252.80;;;;;;4770484;30;20091;-80
2021/01/25 00:49:45;;;;;;;8.93;7.22;;;154.50;2252.80;;;;;;4722135;30;20589;-79
2021/01/25 00:52:45;;;;;;;10.02;7.88;;;154.10;2252.80;;;;;;4707524;30;20042;-80
2021/01/25 00:58:52;;;;;;;;;;;128.80;2252.80;;;;;;4671112;30;20105;-80
2021/01/25 01:05:34;;;;;;;10.90;8.70;;;128.50;2252.80;;;;;;4642705;30;20079;-81
2021/01/25 01:15:24;;;;;;;8.65;6.53;;;128.00;2252.80;;;;;;4627743;31;20428;-78
2021/01/25 01:18:27;;;;;;;7.20;5.65;;;128.00;2252.80;;;;;;4619576;31;20520;-79
2021/01/25 01:21:06;;;;;;;6.90;5.50;;;103.10;2227.20;;;;;;4630790;31;20055;-79
2021/01/25 01:24:21;;;;;;;5.97;5.05;;;103.10;2227.20;;;;;;4641028;31;20034;-79
2021/01/25 01:27:32;;;;;;;7.70;5.70;;;103.00;2227.20;;;;;;4633310;31;20063;-79
2021/01/25 01:31:10;;;;;;;6.93;4.40;;;102.90;2227.20;;;;;;4624997;31;20568;-79
2021/01/25 01:34:46;;;;;;;6.03;3.73;;;102.80;2227.20;;;;;;4639567;30;20082;-81
2021/01/25 01:37:37;;;;;;;6.15;4.63;;;102.80;2227.20;;;;;;4698785;30;20041;-81
2021/01/25 01:40:50;;;;;;;4.63;3.45;;;102.70;2227.20;;;;;;4704587;30;20073;-82
2021/01/25 01:43:56;;;;;;;5.40;3.72;;;102.60;2227.20;;;;;;4704679;30;20026;-82
2021/01/25 01:47:23;;;;;;;4.65;3.17;;;102.40;2227.20;;;;;;4687331;30;20045;-82
2021/01/25 01:50:18;;;;;;;4.50;3.60;;;77.70;2227.20;;;;;;4697935;30;20042;-81
2021/01/25 02:31:48;;;;;;;6.90;4.13;;;76.80;2227.20;;;;;;4747995;27;20104;-80
2021/01/25 02:34:35;;;;;;;11.23;5.93;;;52.00;2227.20;;;;;;4833916;29;20322;-81
2021/01/25 02:40:38;;;;;;;8.43;5.57;;;52.00;2227.20;;;;;;4780044;30;19920;-82
2021/01/25 02:43:22;;;;;;;9.13;6.35;;;52.00;2227.20;;;;;;4773130;30;20077;-79
2021/01/25 02:49:15;;;;;;;11.88;7.63;;;52.10;2227.20;;;;;;4765937;30;20071;-78
2021/01/25 02:51:41;;;;;;;12.27;8.77;;;51.90;2227.20;;;;;;4745318;30;20496;-78
2021/01/25 02:54:07;;;;;;;10.50;7.43;;;51.80;2227.20;;;;;;4756731;30;20062;-78
2021/01/25 02:56:50;;;;;;;12.55;8.57;;;51.90;2227.20;;;;;;4760271;30;20036;-79
2021/01/25 02:59:30;;;;;;;13.43;8.25;;;51.90;2227.20;;;;;;4771649;30;20032;-79
2021/01/25 03:02:19;;;;;;;11.98;8.35;;;51.90;2227.20;;;;;;4773017;30;20040;-80
2021/01/25 03:05:06;;;;;;;11.32;7.22;;;52.00;2227.20;;;;;;4775031;30;20127;-80
2021/01/25 03:07:35;;;;;;;9.07;6.80;;;52.00;2227.20;;;;;;4776027;30;20055;-80
2021/01/25 03:10:08;;;;;;;10.23;7.18;;;52.10;2227.20;;;;;;4768867;30;20071;-80
2021/01/25 03:12:34;;;;;;;9.55;6.75;;;52.10;2227.20;;;;;;4758977;30;20052;-79
2021/01/25 03:15:00;;;;;;;9.73;5.75;;;52.10;2227.20;;;;;;4773498;30;20415;-79
2021/01/25 03:17:26;;;;;;;8.05;5.00;;;76.80;2227.20;;;;;;4776538;30;20036;-78
2021/01/25 03:19:56;;;;;;;8.60;5.88;;;76.80;2227.20;;;;;;4773818;29;20024;-80
2021/01/25 03:22:25;;;;;;;8.98;5.32;;;76.80;2227.20;;;;;;4836404;29;20494;-79
2021/01/25 03:24:52;;;;;;;6.35;4.55;;;76.90;2227.20;;;;;;4814196;29;20045;-79
2021/01/25 03:27:18;;;;;;;8.18;5.00;;;76.90;2227.20;;;;;;4819081;29;20099;-78
2021/01/25 03:29:43;;;;;;;5.85;4.03;;;76.90;2227.20;;;;;;4810371;29;20084;-78
2021/01/25 03:32:09;;;;;;;5.38;3.95;;;76.90;2227.20;;;;;;4828618;29;20035;-78
2021/01/25 03:34:36;;;;;;;4.82;3.17;;;76.90;2227.20;;;;;;4813147;29;20043;-80
2021/01/25 03:37:01;;;;;;;4.63;3.22;;;76.90;2227.20;;;;;;4824438;29;20034;-78
2021/01/25 03:39:27;;;;;;;3.83;2.80;;;77.00;2227.20;;;;;;4815878;29;20114;-79
2021/01/25 03:41:53;;;;;;;5.40;4.50;;;77.00;2227.20;;;;;;4811457;29;20438;-78
2021/01/25 03:44:41;;;;;;;5.68;3.15;;;77.10;2227.20;;;;;;4810869;29;20034;-79
2021/01/25 03:47:07;;;;;;;3.75;3.00;;;77.10;2227.20;;;;;;4827595;29;20035;-79
2021/01/25 03:49:33;;;;;;;4.65;3.05;;;77.20;2227.20;;;;;;4830154;29;20584;-79
2021/01/25 03:51:58;;;;;;;4.38;3.10;;;77.20;2227.20;;;;;;4829228;29;20097;-78
2021/01/25 03:54:24;;;;;;;3.83;2.55;;;77.10;2227.20;;;;;;4830367;29;20105;-78
2021/01/25 03:56:50;;;;;;;4.13;2.70;;;77.10;2227.20;;;;;;4814559;29;20097;-77
2021/01/25 03:59:15;;;;;;;3.45;2.15;;;77.10;2227.20;;;;;;4825921;29;20038;-78
2021/01/25 04:01:41;;;;;;;3.22;2.08;;;77.00;2227.20;;;;;;4825577;29;20125;-77
2021/01/25 04:04:07;;;;;;;4.93;3.33;;;76.90;2227.20;;;;;;4828148;29;20026;-78
2021/01/25 04:06:32;;;;;;;4.13;2.80;;;76.90;2227.20;;;;;;4828887;29;20060;-78
2021/01/25 04:09:13;;;;;;;4.63;2.55;;;76.90;2227.20;;;;;;4835683;29;20030;-79
2021/01/25 04:12:10;;;;;;;4.78;3.05;;;77.00;2227.20;;;;;;4806504;29;20031;-79
2021/01/25 04:14:37;;;;;;;4.43;3.17;;;76.80;2227.20;;;;;;4843184;29;20030;-79
2021/01/25 04:17:27;;;;;;;4.63;3.75;;;52.00;2227.20;;;;;;4847045;29;20045;-80
2021/01/25 04:23:01;;;;;;;6.50;4.10;;;52.00;2227.20;;;;;;4771827;30;20078;-80
2021/01/25 04:25:50;;;;;;;5.70;4.40;;;51.90;2227.20;;;;;;4755598;30;20048;-80
2021/01/25 04:28:41;;;;;;;5.78;4.10;;;51.80;2227.20;;;;;;4753825;30;20048;-80
2021/01/25 04:31:42;;;;;;;7.60;5.03;;;51.80;2227.20;;;;;;4753544;30;20515;-79
2021/01/25 04:34:08;;;;;;;6.57;4.45;;;51.80;2227.20;;;;;;4742676;30;20144;-79
2021/01/25 04:36:34;;;;;;;7.40;4.93;;;51.80;2227.20;;;;;;4740320;30;20029;-78
2021/01/25 04:39:06;;;;;;;7.55;4.95;;;51.80;2227.20;;;;;;4743781;30;20036;-78
2021/01/25 04:41:35;;;;;;;9.02;5.95;;;51.90;2227.20;;;;;;4733799;30;20035;-79
2021/01/25 04:44:38;;;;;;;10.20;5.70;;;51.90;2227.20;;;;;;4738603;30;20060;-81
2021/01/25 04:47:49;;;;;;;10.40;6.38;;;51.90;2227.20;;;;;;4730705;30;20067;-80
2021/01/25 04:50:49;;;;;;;10.85;6.80;;;52.00;2227.20;;;;;;4742603;30;20058;-80
2021/01/25 04:53:42;;;;;;;10.00;7.05;;;52.00;2227.20;;;;;;4724865;30;20048;-78
2021/01/25 04:56:29;;;;;;;12.07;6.88;;;52.00;2227.20;;;;;;4733053;30;20037;-83
2021/01/25 05:01:55;;;;;;;7.28;5.80;;;51.80;2227.20;;;;;;4735976;30;20047;-82
2021/01/25 05:04:38;;;;;;;9.88;6.18;;;51.70;2227.20;;;;;;4736577;30;20583;-80
2021/01/25 05:07:27;;;;;;;10.38;7.18;;;51.70;2227.20;;;;;;4723322;30;20044;-80
2021/01/25 05:10:03;;;;;;;12.90;9.50;;;51.70;2227.20;;;;;;4731410;30;20033;-79
2021/01/25 05:16:20;;;;;;;27.65;14.95;;;51.70;2227.20;;;;;;4770552;30;20084;-80
2021/01/25 05:18:59;;;;;;;13.32;8.98;;;51.80;2227.20;;;;;;4769578;30;20071;-80
2021/01/25 05:21:46;;;;;;;18.98;11.93;;;51.70;2227.20;;;;;;4766962;30;20091;-79
2021/01/25 05:24:46;;;;;;;16.75;10.95;;;51.80;2227.20;;;;;;4764779;30;20476;-80
2021/01/25 05:27:34;;;;;;;14.75;9.85;;;51.80;2227.20;;;;;;4763923;30;20040;-79
2021/01/25 05:30:13;;;;;;;16.65;11.90;;;51.80;2227.20;;;;;;4738204;30;20130;-79
2021/01/25 05:32:58;;;;;;;17.63;11.00;;;51.70;2227.20;;;;;;4772759;30;20071;-79
2021/01/25 05:35:26;;;;;;;30.63;17.52;;;51.80;2227.20;;;;;;4749700;30;20114;-79
2021/01/25 05:38:03;;;;;;;20.65;12.68;;;51.70;2227.20;;;;;;4835631;29;20022;-79
2021/01/25 05:40:31;;;;;;;27.92;15.63;;;51.80;2227.20;;;;;;4837470;29;20034;-79
2021/01/25 05:42:58;;;;;;;18.40;13.25;;;51.80;2227.20;;;;;;4820872;29;20049;-80
2021/01/25 05:45:27;;;;;;;19.08;13.35;;;51.70;2227.20;;;;;;4818826;29;20098;-78
2021/01/25 05:47:56;;;;;;;24.30;17.13;;;51.70;2227.20;;;;;;4836347;29;20042;-79
2021/01/25 05:50:34;;;;;;;21.77;14.95;;;51.70;2227.20;;;;;;4841427;29;20026;-80
2021/01/25 05:53:13;;;;;;;24.30;17.20;;;51.70;2227.20;;;;;;4840743;29;20045;-79
2021/01/25 05:55:40;;;;;;;21.23;14.05;;;51.70;2227.20;;;;;;4820406;29;20030;-76
2021/01/25 05:58:07;;;;;;;19.98;13.38;;;51.70;2227.20;;;;;;4807304;29;20033;-78
2021/01/25 06:00:34;;;;;;;14.85;11.75;;;51.80;2227.20;;;;;;4808949;29;20034;-79
2021/01/25 06:03:00;;;;;;;14.55;9.82;;;51.70;2227.20;;;;;;4833347;29;20054;-79
2021/01/25 06:05:41;;;;;;;15.65;11.10;;;51.80;2227.20;;;;;;4822004;29;20053;-79
2021/01/25 06:08:10;;;;;;;14.68;11.52;;;51.80;2227.20;;;;;;4823662;29;20029;-79
2021/01/25 06:11:09;;;;;;;16.08;11.30;;;51.90;2227.20;;;;;;4827386;29;20027;-79
2021/01/25 06:14:12;;;;;;;14.55;10.35;;;51.90;2227.20;;;;;;4823827;29;20390;-79
2021/01/25 06:16:38;;;;;;;14.98;11.63;;;51.90;2227.20;;;;;;4839782;29;20054;-79
2021/01/25 06:19:06;;;;;;;23.23;15.32;;;51.90;2227.20;;;;;;4822288;29;20034;-79
2021/01/25 06:21:34;;;;;;;22.83;13.70;;;51.90;2227.20;;;;;;4818102;29;20074;-78
2021/01/25 06:24:02;;;;;;;14.73;10.80;;;51.90;2227.20;;;;;;4833835;29;20144;-79
2021/01/25 06:26:30;;;;;;;14.88;10.02;;;51.90;2227.20;;;;;;4816334;29;20037;-78
2021/01/25 06:29:08;;;;;;;17.45;11.98;;;51.90;2227.20;;;;;;4823332;29;20053;-79
2021/01/25 06:31:39;;;;;;;19.60;12.57;;;52.00;2227.20;;;;;;4820591;29;20098;-78
2021/01/25 06:34:10;;;;;;;18.90;12.43;;;52.00;2227.20;;;;;;4817502;29;20033;-78
2021/01/25 06:36:38;;;;;;;21.55;14.15;;;52.00;2227.20;;;;;;4813056;29;20031;-78
2021/01/25 06:39:06;;;;;;;19.65;13.10;;;52.00;2227.20;;;;;;4831017;29;20450;-78
2021/01/25 06:41:41;;;;;;;20.92;14.30;;;52.00;2227.20;;;;;;4832362;29;20109;-79
2021/01/25 06:44:08;;;;;;;16.73;13.13;;;52.00;2227.20;;;;;;4831861;29;20064;-78
2021/01/25 06:46:36;;;;;;;22.50;14.80;;;52.10;2227.20;;;;;;4816462;29;20398;-79
2021/01/25 06:49:06;;;;;;;28.67;16.33;;;52.10;2227.20;;;;;;4828588;29;20042;-78
2021/01/25 06:51:32;;;;;;;22.27;16.50;;;76.80;2227.20;;;;;;4828056;29;20056;-78
2021/01/25 06:54:00;;;;;;;22.60;14.25;;;52.10;2227.20;;;;;;4811396;29;20037;-77
2021/01/25 06:56:26;;;;;;;21.52;15.73;;;52.10;2227.20;;;;;;4827066;29;20019;-77
2021/01/25 06:58:53;;;;;;;25.15;15.85;;;76.80;2227.20;;;;;;4827754;29;20045;-77
2021/01/25 07:01:21;;;;;;;23.15;15.27;;;76.80;2227.20;;;;;;4827474;29;20034;-78
2021/01/25 07:03:56;;;;;;;24.50;16.35;;;76.90;2227.20;;;;;;4827355;29;20034;-77
2021/01/25 07:06:44;;;;;;;23.55;15.40;;;76.90;2227.20;;;;;;4810854;29;20030;-78
2021/01/25 07:09:10;;;;;;;19.05;12.20;;;76.90;2227.20;;;;;;4771291;30;20044;-78
2021/01/25 07:11:36;;;;;;;20.77;13.98;;;76.90;2227.20;;;;;;4753401;30;20083;-77
2021/01/25 07:14:02;;;;;;;22.15;14.05;;;76.90;2227.20;;;;;;4770047;30;20044;-77
2021/01/25 07:16:28;;;;;;;18.23;13.35;;;77.00;2227.20;;;;;;4771287;30;20075;-77
2021/01/25 07:18:54;;;;;;;22.95;14.73;;;77.00;2227.20;;;;;;4752891;30;20056;-77
2021/01/25 07:21:22;;;;;;;23.38;14.48;;;77.10;2227.20;;;;;;4753278;30;20036;-76
2021/01/25 07:23:49;;;;;;;18.02;13.40;;;77.10;2227.20;;;;;;4768902;30;20040;-77
2021/01/25 07:26:17;;;;;;;16.25;11.48;;;77.20;2227.20;;;;;;4771555;30;20415;-77
2021/01/25 07:28:43;;;;;;;23.52;14.10;;;77.20;2227.20;;;;;;4770974;30;20458;-76
2021/01/25 07:31:10;;;;;;;20.10;14.00;;;77.30;2227.20;;;;;;4788478;29;20121;-76
2021/01/25 07:33:37;;;;;;;21.40;14.70;;;77.30;2227.20;;;;;;4789052;29;20035;-76
2021/01/25 07:36:04;;;;;;;20.50;13.93;;;77.30;2227.20;;;;;;4788582;30;20050;-77
2021/01/25 07:38:30;;;;;;;19.52;11.88;;;77.40;2227.20;;;;;;4788572;30;20052;-77
2021/01/25 07:40:58;;;;;;;14.20;11.23;;;77.40;2201.60;;;;;;4774051;30;20056;-77
2021/01/25 07:43:31;;;;;;;17.92;11.82;;;77.40;2201.60;;;;;;4773720;30;20039;-77
2021/01/25 07:46:05;;;;;;;14.82;9.95;;;77.50;2201.60;;;;;;4797638;29;20068;-77
2021/01/25 07:48:31;;;;;;;12.15;9.45;;;77.50;2176.00;;;;;;4792330;29;20111;-77
2021/01/25 07:51:00;;;;;;;16.92;10.80;;;77.60;2176.00;;;;;;4810402;29;20538;-78
2021/01/25 07:53:33;;;;;;;15.45;10.00;;;77.60;2176.00;;;;;;4803054;29;20076;-77
2021/01/25 07:55:58;;;;;;;14.00;9.80;;;77.70;2201.60;;;;;;4825964;29;20034;-77
2021/01/25 07:58:26;;;;;;;16.73;10.55;;;102.40;2176.00;;;;;;4811141;29;20045;-78
2021/01/25 08:00:51;;;;;;;11.30;7.85;;;102.40;2150.40;;;;;;4811824;29;20047;-79
2021/01/25 08:03:32;;;;;;;14.50;9.25;;;102.40;2150.40;;;;;;4825954;29;20106;-79
2021/01/25 08:06:16;;;;;;;15.55;9.32;;;102.50;2150.40;;;;;;4848263;29;20026;-80
2021/01/25 08:08:53;;;;;;;12.32;8.65;;;102.50;2150.40;;;;;;4843790;29;20057;-80
2021/01/25 08:11:33;;;;;;;12.73;9.30;;;102.50;2099.20;;;;;;4787431;29;20094;-80
2021/01/25 08:14:26;;;;;;;13.05;8.50;;;102.70;2124.80;;;;;;4846126;29;20007;-79
2021/01/25 08:25:44;;;;;;;13.23;9.30;;;102.70;2073.60;;;;;;5603062;24;20058;-81
2021/01/25 08:29:24;;;;;;;14.38;9.20;;;102.90;2073.60;;;;;;4812083;29;20263;-79
2021/01/25 08:32:56;;;;;;;16.98;11.25;;;103.10;2048.00;;;;;;4757261;30;20032;-79
2021/01/25 08:36:38;;;;;;;12.93;8.23;;;103.20;2073.60;;;;;;4791113;29;20042;-80
2021/01/25 08:43:11;;;;;;;9.90;7.10;;;103.20;2022.40;;;;;;4794989;29;20035;-81
2021/01/25 11:19:03;;;;;;;6.85;4.05;;;282.50;1203.20;;;;;;4908303;23;20062;-84
2021/01/25 11:21:31;;;;;;;8.27;4.25;;;282.50;1177.60;;;;;;4822936;29;20038;-85
2021/01/25 11:23:57;;;;;;;11.23;4.63;;;307.30;1228.80;;;;;;4816231;29;20049;-86
2021/01/25 11:26:25;;;;;;;6.63;3.85;;;307.70;1228.80;;;;;;4813038;29;20031;-85
2021/01/25 11:28:51;;;;;;;6.18;3.50;;;307.60;1177.60;;;;;;4812968;29;20475;-85
2021/01/25 11:31:17;;;;;;;20.02;6.75;;;307.70;1203.20;;;;;;4795702;29;20050;-87
2021/01/25 11:33:42;;;;;;;17.67;8.60;;;307.80;1203.20;;;;;;4827501;29;20505;-86
2021/01/25 11:36:08;;;;;;;9.35;4.60;;;307.90;1228.80;;;;;;4811014;29;20117;-85
2021/01/25 11:38:35;;;;;;;10.13;4.07;;;307.80;1177.60;;;;;;4810759;29;20037;-86
2021/01/25 11:41:02;;;;;;;7.97;5.18;;;307.70;1177.60;;;;;;4811583;29;20125;-85
2021/01/25 11:43:28;;;;;;;13.23;6.05;;;307.40;1177.60;;;;;;4813543;29;20554;-87
2021/01/25 11:45:54;;;;;;;13.00;7.35;;;307.20;1228.80;;;;;;4802699;29;20038;-84
2021/01/25 11:48:21;;;;;;;21.15;8.60;;;307.30;1203.20;;;;;;4816814;29;20034;-87
2021/01/25 11:50:48;;;;;;;12.15;5.78;;;308.00;1177.60;;;;;;4814436;29;20130;-85
2021/01/25 11:53:14;;;;;;;12.57;5.60;;;307.20;1203.20;;;;;;4817331;29;20030;-88
2021/01/25 11:55:43;;;;;;;15.30;6.50;;;307.30;1203.20;;;;;;4832806;29;20557;-86
2021/01/25 11:58:10;;;;;;;13.57;4.68;;;307.20;1203.20;;;;;;4831943;29;20034;-87
2021/01/25 12:00:36;;;;;;;13.82;6.90;;;282.30;1203.20;;;;;;4816673;29;20038;-85
2021/01/25 12:03:03;;;;;;;10.35;5.38;;;282.30;1203.20;;;;;;4817815;29;20037;-86
2021/01/25 12:05:29;;;;;;;6.65;4.43;;;282.50;1203.20;;;;;;4817454;29;20470;-88
2021/01/25 12:07:57;;;;;;;18.10;6.75;;;282.20;1203.20;;;;;;4819414;29;20037;-86
2021/01/25 12:11:16;;;;;;;10.55;4.57;;;281.60;1254.40;;;;;;4823411;29;20030;-85
2021/01/25 12:13:42;;;;;;;13.90;6.32;;;256.80;1254.40;;;;;;4839766;29;20035;-86
2021/01/25 12:24:57;;;;;;;11.07;4.83;;;231.30;1356.80;;;;;;1009873;24;20313;-79
2021/01/25 12:27:35;;;;;;;7.35;5.10;;;231.20;1305.60;;;;;;4845689;29;20030;-85
2021/01/25 12:30:01;;;;;;;26.13;10.20;;;231.30;1305.60;;;;;;4773449;30;20026;-79
2021/01/25 12:36:07;;;;;;;;;;;256.20;1280.00;;;;;;4781021;30;20049;-82
2021/01/25 12:39:15;;;;;;;19.92;9.07;;;256.20;1280.00;;;;;;4786265;30;19921;-82
2021/01/25 12:41:46;;;;;;;9.73;5.65;;;256.20;1254.40;;;;;;4779346;30;20073;-79
2021/01/25 12:44:26;;;;;;;12.55;6.95;;;256.40;1228.80;;;;;;4764853;30;20043;-84
2021/01/25 12:49:49;;;;;;;7.15;3.83;;;256.20;1280.00;;;;;;4958667;24;20057;-79
2021/01/25 12:52:14;;;;;;;9.93;6.35;;;256.10;1254.40;;;;;;4855778;29;20051;-78
2021/01/25 12:57:38;;;;;;;27.95;8.30;;;231.20;1305.60;;;;;;4929747;24;20068;-81
2021/01/25 13:00:26;;;;;;;8.50;3.72;;;256.00;1331.20;;;;;;4862917;29;20058;-80
2021/01/25 13:02:55;;;;;;;7.15;4.32;;;231.30;1280.00;;;;;;4876306;29;20067;-79
2021/01/25 13:05:29;;;;;;;6.75;4.07;;;231.20;1305.60;;;;;;4865031;29;20057;-79
2021/01/25 13:11:10;;;;;;;11.82;8.20;;;231.10;1331.20;;;;;;4838893;29;20111;-81
2021/01/25 13:13:44;;;;;;;17.83;8.25;;;230.60;1356.80;;;;;;4826503;29;20462;-82
2021/01/25 13:16:28;;;;;;;12.43;7.20;;;230.50;1356.80;;;;;;4843812;29;20042;-79
2021/01/25 13:19:34;;;;;;;13.05;5.57;;;230.40;1331.20;;;;;;4855892;29;20018;-80
2021/01/25 13:25:40;;;;;;;9.15;4.97;;;230.60;1305.60;;;;;;4860904;29;20076;-79
2021/01/25 13:28:08;;;;;;;11.60;6.30;;;230.60;1331.20;;;;;;4835253;29;20045;-79
2021/01/25 13:30:34;;;;;;;9.70;4.90;;;230.90;1331.20;;;;;;4834336;29;20034;-80
2021/01/25 13:33:00;;;;;;;7.80;4.82;;;231.20;1305.60;;;;;;4831710;29;20109;-78
2021/01/25 13:35:27;;;;;;;7.78;4.50;;;230.90;1280.00;;;;;;4833516;29;20553;-78
2021/01/25 13:37:54;;;;;;;12.85;5.57;;;230.70;1331.20;;;;;;4835467;29;20030;-77
2021/01/25 13:40:24;;;;;;;11.55;7.13;;;230.50;1331.20;;;;;;4828974;29;20034;-78
2021/01/25 13:42:49;;;;;;;9.25;4.97;;;230.40;1356.80;;;;;;4848590;29;20033;-78
2021/01/25 13:45:18;;;;;;;11.43;4.53;;;230.40;1382.40;;;;;;4850876;29;20405;-78
2021/01/25 13:47:45;;;;;;;6.55;4.45;;;230.50;1382.40;;;;;;4848935;29;20025;-78
2021/01/25 13:50:11;;;;;;;9.50;4.85;;;230.50;1331.20;;;;;;4866216;29;20036;-78
2021/01/25 13:52:37;;;;;;;8.43;5.68;;;205.70;1356.80;;;;;;4849814;29;20109;-78
2021/01/25 13:55:04;;;;;;;13.88;6.93;;;230.40;1356.80;;;;;;4869218;29;20053;-79
2021/01/25 13:57:31;;;;;;;9.13;5.40;;;205.70;1408.00;;;;;;4869484;29;20054;-80
2021/01/25 13:59:58;;;;;;;12.10;6.38;;;230.40;1433.60;;;;;;4854260;29;20074;-77
2021/01/25 14:08:21;;;;;;;13.63;5.65;;;205.50;1433.60;;;;;;4844794;24;20066;-79
2021/01/25 15:46:29;;;;;;;93.40;52.08;;;179.20;1868.80;;;;;;5383119;23;20326;-80
2021/01/25 16:17:48;;;;;;;246.13;149.73;;;154.20;1971.20;;;;;;5196600;23;20054;-78
2021/01/25 16:20:41;;;;;;;252.93;150.23;;;154.10;1971.20;;;;;;4866330;29;20337;-79
2021/01/25 16:26:45;;;;;;;228.63;130.38;;;154.10;1996.80;;;;;;4830164;29;20111;-81
2021/01/25 17:31:51;;;;;;;43.00;22.65;;;153.80;1945.60;;;;;;5912878;23;20032;-76
2021/01/25 21:12:31;;;;;;;23.17;16.98;;;128.50;1996.80;;;;;;4774872;30;20038;-81
